createdAt,value
2023-04-16T00:02:05.793Z,22.80
2023-04-16T00:04:33.064Z,23.20
2023-04-16T00:07:00.450Z,23.27
2023-04-16T00:09:29.057Z,23.80
2023-04-16T00:11:56.339Z,24.35
2023-04-16T00:14:23.553Z,24.45
2023-04-16T00:16:51.139Z,23.73
2023-04-16T00:19:18.356Z,25.05
2023-04-16T00:21:45.400Z,24.10
2023-04-16T00:24:12.839Z,23.48
2023-04-16T00:26:40.901Z,21.67
2023-04-16T00:29:08.574Z,24.58
2023-04-16T00:31:37.265Z,25.17
2023-04-16T00:34:04.564Z,25.00
2023-04-16T00:36:31.677Z,25.00
2023-04-16T00:38:58.808Z,26.05
2023-04-16T00:41:26.773Z,24.13
2023-04-16T00:43:54.191Z,25.80
2023-04-16T00:46:22.475Z,22.03
2023-04-16T00:48:51.540Z,21.63
2023-04-16T00:51:20.076Z,23.15
2023-04-16T00:53:47.292Z,24.40
2023-04-16T00:56:14.860Z,21.08
2023-04-16T00:58:41.995Z,21.60
2023-04-16T01:01:09.082Z,23.63
2023-04-16T01:03:43.720Z,23.25
2023-04-16T01:06:11.724Z,20.08
2023-04-16T01:08:47.037Z,22.80
2023-04-16T01:11:16.163Z,22.13
2023-04-16T01:13:43.426Z,20.75
2023-04-16T01:16:12.148Z,20.42
2023-04-16T01:18:40.442Z,22.83
2023-04-16T01:21:08.618Z,20.00
2023-04-16T01:23:38.430Z,19.90
2023-04-16T01:26:06.468Z,19.83
2023-04-16T01:28:36.376Z,20.85
2023-04-16T01:31:03.959Z,19.67
2023-04-16T01:33:31.409Z,19.02
2023-04-16T01:35:59.345Z,23.13
2023-04-16T01:38:28.236Z,22.33
2023-04-16T01:40:57.565Z,22.08
2023-04-16T01:43:26.226Z,22.40
2023-04-16T01:46:14.893Z,21.60
2023-04-16T01:48:42.464Z,18.27
2023-04-16T01:51:10.162Z,20.40
2023-04-16T01:53:37.360Z,19.40
2023-04-16T01:56:04.755Z,20.58
2023-04-16T01:58:32.416Z,19.83
2023-04-16T02:01:00.665Z,20.27
2023-04-16T02:03:28.371Z,19.20
2023-04-16T02:05:55.982Z,19.75
2023-04-16T02:08:23.743Z,20.00
2023-04-16T02:10:52.433Z,18.95
2023-04-16T02:13:20.426Z,19.17
2023-04-16T02:15:49.826Z,18.92
2023-04-16T02:18:17.835Z,18.90
2023-04-16T02:20:47.078Z,20.20
2023-04-16T02:23:17.944Z,16.77
2023-04-16T02:25:47.238Z,16.83
2023-04-16T02:28:16.857Z,20.90
2023-04-16T02:30:44.767Z,19.73
2023-04-16T02:33:13.594Z,19.42
2023-04-16T02:35:41.659Z,18.90
2023-04-16T02:38:10.359Z,17.97
2023-04-16T02:40:39.124Z,18.45
2023-04-16T02:43:07.542Z,16.75
2023-04-16T02:45:35.709Z,17.05
2023-04-16T02:48:03.887Z,16.83
2023-04-16T02:50:32.060Z,20.17
2023-04-16T02:53:01.572Z,16.58
2023-04-16T02:55:30.190Z,17.38
2023-04-16T02:57:57.716Z,19.15
2023-04-16T03:00:25.974Z,18.33
2023-04-16T03:02:55.257Z,15.90
2023-04-16T03:05:22.945Z,18.08
2023-04-16T03:07:57.010Z,17.85
2023-04-16T03:10:24.846Z,19.92
2023-04-16T03:12:53.000Z,16.67
2023-04-16T03:15:20.786Z,19.20
2023-04-16T03:17:48.835Z,15.13
2023-04-16T03:20:17.106Z,17.15
2023-04-16T03:22:44.213Z,18.27
2023-04-16T03:25:11.676Z,15.60
2023-04-16T03:27:41.734Z,16.13
2023-04-16T03:30:11.046Z,18.50
2023-04-16T03:32:38.577Z,17.25
2023-04-16T03:35:07.583Z,18.40
2023-04-16T03:37:34.782Z,19.25
2023-04-16T03:40:02.040Z,17.83
2023-04-16T03:42:29.109Z,18.58
2023-04-16T03:44:56.175Z,19.90
2023-04-16T03:47:23.585Z,17.60
2023-04-16T03:49:50.962Z,16.70
2023-04-16T03:52:18.043Z,18.80
2023-04-16T03:54:45.351Z,16.83
2023-04-16T03:57:12.415Z,18.33
2023-04-16T03:59:39.480Z,18.60
2023-04-16T04:02:06.703Z,16.58
2023-04-16T04:04:33.941Z,16.87
2023-04-16T04:07:01.165Z,18.20
2023-04-16T04:09:28.238Z,20.13
2023-04-16T04:11:55.442Z,21.23
2023-04-16T04:14:22.468Z,18.05
2023-04-16T04:16:49.502Z,17.60
2023-04-16T04:19:16.916Z,17.77
2023-04-16T04:21:43.964Z,15.18
2023-04-16T04:24:11.379Z,16.00
2023-04-16T04:26:38.543Z,15.82
2023-04-16T04:29:05.695Z,15.83
2023-04-16T04:31:33.045Z,14.75
2023-04-16T04:34:00.182Z,14.75
2023-04-16T04:36:27.438Z,14.88
2023-04-16T04:38:54.547Z,14.52
2023-04-16T04:41:21.872Z,14.97
2023-04-16T04:43:48.972Z,15.48
2023-04-16T04:46:16.183Z,14.50
2023-04-16T04:48:43.302Z,14.68
2023-04-16T04:51:10.531Z,15.32
2023-04-16T04:53:37.584Z,15.03
2023-04-16T04:56:12.091Z,16.42
2023-04-16T04:58:41.004Z,13.85
2023-04-16T05:01:08.122Z,15.13
2023-04-16T05:03:35.485Z,13.45
2023-04-16T05:06:02.821Z,12.30
2023-04-16T05:08:30.223Z,14.63
2023-04-16T05:10:57.356Z,13.73
2023-04-16T05:13:24.442Z,13.02
2023-04-16T05:15:51.503Z,16.02
2023-04-16T05:18:18.855Z,14.27
2023-04-16T05:20:46.084Z,14.52
2023-04-16T05:23:13.181Z,12.85
2023-04-16T05:25:40.250Z,14.43
2023-04-16T05:28:07.326Z,14.68
2023-04-16T05:30:34.404Z,15.97
2023-04-16T05:33:01.743Z,15.70
2023-04-16T05:35:28.864Z,13.10
2023-04-16T05:37:55.897Z,14.02
2023-04-16T05:40:23.039Z,14.05
2023-04-16T05:42:50.488Z,12.57
2023-04-16T05:45:17.659Z,13.15
2023-04-16T05:47:44.756Z,13.73
2023-04-16T05:50:11.814Z,12.73
2023-04-16T05:52:39.015Z,15.82
2023-04-16T05:55:07.089Z,13.80
2023-04-16T05:57:34.214Z,12.52
2023-04-16T06:00:01.646Z,12.80
2023-04-16T06:02:30.531Z,14.25
2023-04-16T06:04:57.704Z,12.63
2023-04-16T06:07:24.781Z,13.77
2023-04-16T06:09:51.850Z,13.52
2023-04-16T06:12:18.918Z,13.68
2023-04-16T06:14:45.988Z,12.82
2023-04-16T06:17:13.026Z,14.13
2023-04-16T06:19:40.769Z,13.63
2023-04-16T06:22:07.899Z,14.48
2023-04-16T06:24:34.936Z,11.75
2023-04-16T06:27:02.777Z,13.15
2023-04-16T06:29:40.665Z,11.57
2023-04-16T06:32:09.105Z,10.83
2023-04-16T06:34:38.502Z,12.35
2023-04-16T06:37:06.707Z,11.73
2023-04-16T06:39:35.205Z,11.82
2023-04-16T06:42:02.641Z,12.00
2023-04-16T06:44:29.733Z,12.33
2023-04-16T06:46:56.844Z,11.52
2023-04-16T06:49:24.230Z,13.18
2023-04-16T06:51:51.642Z,14.30
2023-04-16T06:54:19.732Z,12.30
2023-04-16T06:56:46.880Z,15.73
2023-04-16T06:59:14.200Z,14.85
2023-04-16T07:01:41.512Z,14.13
2023-04-16T07:04:09.523Z,15.88
2023-04-16T07:06:36.629Z,13.07
2023-04-16T07:09:03.793Z,14.20
2023-04-16T07:11:31.527Z,14.00
2023-04-16T07:13:58.988Z,13.88
2023-04-16T07:16:26.126Z,16.55
2023-04-16T07:18:53.239Z,17.10
2023-04-16T07:21:21.008Z,15.67
2023-04-16T07:23:48.216Z,14.15
2023-04-16T07:26:15.599Z,16.50
2023-04-16T07:28:43.586Z,15.88
2023-04-16T07:31:10.902Z,17.90
2023-04-16T07:33:38.227Z,19.60
2023-04-16T07:36:05.555Z,17.77
2023-04-16T07:38:32.645Z,18.70
2023-04-16T07:40:59.758Z,17.10
2023-04-16T07:43:26.897Z,20.13
2023-04-16T07:45:54.022Z,20.47
2023-04-16T07:48:22.002Z,17.88
2023-04-16T07:50:50.155Z,18.73
2023-04-16T07:53:17.260Z,18.55
2023-04-16T07:55:44.414Z,18.23
2023-04-16T07:58:11.519Z,20.30
2023-04-16T08:00:39.518Z,19.13
2023-04-16T08:03:06.997Z,20.08
2023-04-16T08:05:34.129Z,21.50
2023-04-16T08:08:01.256Z,20.13
2023-04-16T08:10:28.449Z,24.40
2023-04-16T08:12:55.523Z,20.20
2023-04-16T08:15:22.607Z,21.90
2023-04-16T08:17:49.725Z,22.45
2023-04-16T08:20:19.106Z,21.92
2023-04-16T08:22:46.702Z,24.67
2023-04-16T08:25:14.576Z,21.10
2023-04-16T08:27:41.676Z,21.52
2023-04-16T08:30:08.803Z,22.50
2023-04-16T08:32:35.968Z,22.00
2023-04-16T08:35:03.149Z,21.10
2023-04-16T08:37:30.458Z,21.13
2023-04-16T08:39:57.582Z,20.42
2023-04-16T08:42:32.617Z,20.58
2023-04-16T08:45:09.467Z,20.05
2023-04-16T08:47:37.297Z,19.27
2023-04-16T08:50:05.699Z,16.20
2023-04-16T08:52:33.185Z,16.08
2023-04-16T08:55:12.452Z,16.25
2023-04-16T08:57:46.251Z,19.02
2023-04-16T09:00:13.870Z,17.67
2023-04-16T09:02:41.182Z,17.95
2023-04-16T09:05:11.024Z,17.63
2023-04-16T09:07:38.806Z,18.10
2023-04-16T09:10:07.106Z,17.38
2023-04-16T09:12:35.799Z,14.87
2023-04-16T09:15:03.649Z,14.10
2023-04-16T09:17:31.330Z,15.13
2023-04-16T09:19:59.514Z,16.58
2023-04-16T09:22:26.648Z,16.77
2023-04-16T09:24:53.923Z,17.17
2023-04-16T09:27:21.534Z,14.98
2023-04-16T09:29:49.722Z,15.85
2023-04-16T09:32:16.804Z,14.30
2023-04-16T09:35:10.649Z,15.57
2023-04-16T09:37:38.690Z,14.40
2023-04-16T09:40:08.158Z,15.18
2023-04-16T09:42:36.998Z,16.13
2023-04-16T09:45:05.944Z,12.05
2023-04-16T09:47:42.107Z,14.68
2023-04-16T09:50:12.607Z,14.40
2023-04-16T09:52:44.198Z,14.18
2023-04-16T09:55:11.256Z,12.63
2023-04-16T09:57:39.196Z,15.43
2023-04-16T10:00:08.993Z,13.77
2023-04-16T10:02:39.095Z,13.13
2023-04-16T10:05:07.790Z,14.15
2023-04-16T10:07:36.122Z,12.85
2023-04-16T10:10:04.867Z,12.25
2023-04-16T10:12:33.074Z,13.70
2023-04-16T10:15:00.610Z,11.50
2023-04-16T10:17:30.230Z,11.32
2023-04-16T10:19:58.204Z,10.20
2023-04-16T10:22:26.364Z,12.13
2023-04-16T10:24:54.100Z,10.93
2023-04-16T10:27:21.459Z,11.63
2023-04-16T10:29:49.034Z,10.40
2023-04-16T10:32:17.436Z,10.00
2023-04-16T10:34:45.303Z,10.90
2023-04-16T10:37:12.690Z,11.20
2023-04-16T10:39:40.221Z,10.37
2023-04-16T10:42:13.800Z,9.95
2023-04-16T10:44:44.357Z,15.35
2023-04-16T10:47:14.253Z,10.77
2023-04-16T10:49:42.895Z,9.60
2023-04-16T10:52:17.245Z,9.40
2023-04-16T10:54:44.951Z,12.63
2023-04-16T10:57:19.954Z,9.50
2023-04-16T10:59:49.210Z,10.18
2023-04-16T11:02:20.470Z,9.77
2023-04-16T11:04:49.538Z,9.03
2023-04-16T11:07:17.293Z,8.63
2023-04-16T11:09:47.450Z,8.82
2023-04-16T11:12:27.648Z,9.27
2023-04-16T11:14:59.313Z,9.60
2023-04-16T11:17:41.301Z,7.67
2023-04-16T11:20:28.938Z,11.75
2023-04-16T11:22:57.365Z,7.50
2023-04-16T11:25:27.126Z,9.00
2023-04-16T11:27:56.248Z,8.35
2023-04-16T11:30:31.351Z,8.23
2023-04-16T11:32:58.539Z,8.50
2023-04-16T11:35:26.349Z,8.35
2023-04-16T11:37:56.524Z,8.77
2023-04-16T11:40:26.766Z,8.55
2023-04-16T11:42:54.077Z,8.47
2023-04-16T11:45:21.153Z,9.25
2023-04-16T11:47:53.363Z,8.70
2023-04-16T11:50:30.664Z,9.35
2023-04-16T11:53:04.164Z,7.90
2023-04-16T11:55:49.579Z,8.23
2023-04-16T11:58:16.638Z,7.15
2023-04-16T12:00:45.262Z,7.93
2023-04-16T12:03:12.963Z,10.00
2023-04-16T12:05:40.907Z,6.95
2023-04-16T12:08:09.941Z,8.03
2023-04-16T12:10:52.420Z,6.88
2023-04-16T12:13:20.142Z,7.50
2023-04-16T12:15:48.212Z,7.53
2023-04-16T12:18:16.415Z,7.28
2023-04-16T12:20:44.860Z,7.73
2023-04-16T12:23:24.689Z,6.35
2023-04-16T12:25:52.229Z,6.78
2023-04-16T12:28:33.341Z,8.57
2023-04-16T12:31:01.609Z,6.63
2023-04-16T12:33:29.466Z,7.73
2023-04-16T12:35:57.108Z,7.63
2023-04-16T12:38:25.565Z,7.03
2023-04-16T12:40:56.446Z,8.02
2023-04-16T12:43:24.054Z,6.75
2023-04-16T12:45:51.375Z,7.20
2023-04-16T12:48:18.653Z,7.55
2023-04-16T12:50:46.060Z,7.22
2023-04-16T12:53:13.122Z,7.57
2023-04-16T12:55:40.330Z,6.18
2023-04-16T12:58:11.078Z,7.63
2023-04-16T13:00:39.875Z,6.07
2023-04-16T13:03:07.036Z,7.57
2023-04-16T13:05:34.792Z,7.38
2023-04-16T13:08:02.136Z,7.18
2023-04-16T13:10:29.290Z,7.43
2023-04-16T13:12:57.517Z,7.00
2023-04-16T13:15:25.731Z,8.75
2023-04-16T13:17:53.014Z,6.68
2023-04-16T13:20:21.924Z,6.40
2023-04-16T13:22:51.051Z,6.90
2023-04-16T13:25:19.567Z,6.93
2023-04-16T13:27:47.609Z,7.55
2023-04-16T13:30:16.093Z,7.72
2023-04-16T13:32:44.086Z,7.55
2023-04-16T13:35:11.796Z,8.50
2023-04-16T13:37:39.053Z,8.77
2023-04-16T13:40:08.655Z,7.72
2023-04-16T13:42:37.532Z,8.25
2023-04-16T13:45:07.506Z,6.72
2023-04-16T13:47:36.797Z,8.03
2023-04-16T13:50:05.172Z,8.13
2023-04-16T13:52:33.542Z,7.43
2023-04-16T13:55:01.762Z,6.15
2023-04-16T13:57:29.215Z,8.10
2023-04-16T13:59:56.390Z,6.87
2023-04-16T14:02:23.567Z,7.85
2023-04-16T14:04:50.807Z,7.90
2023-04-16T14:07:19.870Z,8.25
2023-04-16T14:09:48.386Z,7.00
2023-04-16T14:12:16.307Z,7.80
2023-04-16T14:14:43.377Z,7.88
2023-04-16T14:17:11.686Z,7.07
2023-04-16T14:19:39.623Z,5.95
2023-04-16T14:22:09.479Z,6.97
2023-04-16T14:24:37.854Z,7.37
2023-04-16T14:27:07.692Z,6.13
2023-04-16T14:29:36.825Z,5.53
2023-04-16T14:32:06.178Z,7.93
2023-04-16T14:34:33.967Z,5.63
2023-04-16T14:37:02.469Z,7.43
2023-04-16T14:39:32.166Z,7.15
2023-04-16T14:42:00.610Z,5.95
2023-04-16T14:44:29.522Z,6.30
2023-04-16T14:46:58.210Z,5.43
2023-04-16T14:49:26.597Z,6.60
2023-04-16T14:51:54.639Z,5.78
2023-04-16T14:54:23.167Z,5.30
2023-04-16T14:56:51.294Z,4.43
2023-04-16T14:59:18.842Z,4.10
2023-04-16T15:01:48.059Z,4.17
2023-04-16T15:04:16.623Z,5.03
2023-04-16T15:06:46.525Z,4.85
2023-04-16T15:09:14.637Z,4.32
2023-04-16T15:11:42.617Z,6.18
2023-04-16T15:14:10.139Z,4.93
2023-04-16T15:16:38.780Z,5.25
2023-04-16T15:19:07.118Z,5.30
2023-04-16T15:21:34.845Z,4.50
2023-04-16T15:24:04.749Z,5.43
2023-04-16T15:26:33.039Z,6.70
2023-04-16T15:29:00.877Z,5.20
2023-04-16T15:31:29.611Z,4.88
2023-04-16T15:33:56.919Z,5.30
2023-04-16T15:36:24.777Z,3.97
2023-04-16T15:38:53.449Z,4.10
2023-04-16T15:41:20.826Z,4.05
2023-04-16T15:43:48.189Z,4.45
2023-04-16T15:46:15.604Z,4.18
2023-04-16T15:48:42.704Z,4.97
2023-04-16T15:51:10.624Z,4.70
2023-04-16T15:53:37.927Z,4.75
2023-04-16T15:56:05.090Z,4.20
2023-04-16T15:58:32.172Z,4.10
2023-04-16T16:00:59.270Z,3.90
2023-04-16T16:03:26.626Z,3.70
2023-04-16T16:05:53.816Z,4.32
2023-04-16T16:08:20.925Z,3.78
2023-04-16T16:10:48.678Z,2.83
2023-04-16T16:13:18.154Z,3.17
2023-04-16T16:15:45.866Z,4.00
2023-04-16T16:18:12.975Z,3.60
2023-04-16T16:20:40.536Z,3.25
2023-04-16T16:23:07.812Z,3.65
2023-04-16T16:25:35.195Z,2.97
2023-04-16T16:28:06.029Z,4.37
2023-04-16T16:30:33.531Z,3.70
2023-04-16T16:33:00.797Z,4.20
2023-04-16T16:35:27.903Z,3.47
2023-04-16T16:37:57.894Z,4.07
2023-04-16T16:40:25.289Z,3.47
2023-04-16T16:42:52.775Z,4.95
2023-04-16T16:45:20.748Z,4.35
2023-04-16T16:47:48.833Z,4.38
2023-04-16T16:50:16.130Z,3.85
2023-04-16T16:52:44.552Z,3.50
2023-04-16T16:55:11.967Z,3.72
2023-04-16T16:57:39.331Z,4.10
2023-04-16T17:00:16.329Z,4.05
2023-04-16T17:02:43.924Z,5.13
2023-04-16T17:05:12.552Z,5.37
2023-04-16T17:07:39.841Z,4.53
2023-04-16T17:10:07.358Z,5.00
2023-04-16T17:12:34.460Z,5.05
2023-04-16T17:15:01.555Z,4.97
2023-04-16T17:17:29.230Z,5.83
2023-04-16T17:19:56.329Z,5.97
2023-04-16T17:22:23.705Z,5.43
2023-04-16T17:24:50.908Z,5.85
2023-04-16T17:27:18.044Z,5.43
2023-04-16T17:29:45.384Z,7.10
2023-04-16T17:32:12.691Z,5.45
2023-04-16T17:34:39.897Z,7.00
2023-04-16T17:37:07.245Z,6.47
2023-04-16T17:39:34.316Z,6.22
2023-04-16T17:42:03.026Z,6.23
2023-04-16T17:44:30.382Z,5.78
2023-04-16T17:46:57.443Z,7.95
2023-04-16T17:49:24.524Z,7.53
2023-04-16T17:51:52.618Z,7.25
2023-04-16T17:54:19.847Z,6.13
2023-04-16T17:56:47.218Z,6.60
2023-04-16T17:59:14.302Z,5.60
2023-04-16T18:01:41.661Z,6.20
2023-04-16T18:04:09.578Z,5.78
2023-04-16T18:06:36.883Z,5.40
2023-04-16T18:09:05.771Z,6.65
2023-04-16T18:11:33.186Z,5.70
2023-04-16T18:14:00.241Z,6.43
2023-04-16T18:16:27.518Z,8.85
2023-04-16T18:18:54.606Z,8.70
2023-04-16T18:21:22.046Z,9.82
2023-04-16T18:23:49.133Z,6.82
2023-04-16T18:26:20.430Z,6.88
2023-04-16T18:28:49.277Z,6.85
2023-04-16T18:31:18.410Z,9.03
2023-04-16T18:33:56.279Z,7.70
2023-04-16T18:36:26.097Z,10.02
2023-04-16T18:39:01.491Z,8.38
2023-04-16T18:41:30.767Z,8.95
2023-04-16T18:43:58.162Z,9.30
2023-04-16T18:46:26.729Z,11.80
2023-04-16T18:48:54.259Z,60.70
2023-04-16T18:51:21.377Z,13.35
2023-04-16T18:53:48.420Z,9.18
2023-04-16T18:56:15.473Z,11.40
2023-04-16T18:58:43.415Z,9.82
2023-04-16T19:01:13.957Z,10.25
2023-04-16T19:03:41.482Z,8.82
2023-04-16T19:06:09.573Z,10.13
2023-04-16T19:08:36.617Z,11.03
2023-04-16T19:11:03.698Z,11.75
2023-04-16T19:13:32.242Z,9.48
2023-04-16T19:16:00.836Z,12.32
2023-04-16T19:18:28.997Z,10.68
2023-04-16T19:21:02.054Z,11.60
2023-04-16T19:23:29.670Z,10.63
2023-04-16T19:25:57.226Z,11.13
2023-04-16T19:28:25.014Z,10.18
2023-04-16T19:30:53.318Z,11.35
2023-04-16T19:33:20.525Z,12.03
2023-04-16T19:35:47.937Z,10.85
2023-04-16T19:38:15.055Z,12.05
2023-04-16T19:40:48.774Z,11.75
2023-04-16T19:43:15.863Z,11.63
2023-04-16T19:45:46.976Z,11.77
2023-04-16T19:48:14.385Z,12.05
2023-04-16T19:50:42.274Z,13.30
2023-04-16T19:53:09.597Z,14.00
2023-04-16T19:55:37.049Z,12.68
2023-04-16T19:58:06.825Z,12.90
2023-04-16T20:00:35.065Z,15.63
2023-04-16T20:03:02.225Z,13.85
2023-04-16T20:05:29.706Z,13.85
2023-04-16T20:07:57.060Z,16.10
2023-04-16T20:10:24.126Z,13.83
2023-04-16T20:12:51.305Z,15.30
2023-04-16T20:15:18.886Z,14.88
2023-04-16T20:17:46.084Z,14.43
2023-04-16T20:20:15.741Z,12.48
2023-04-16T20:22:43.388Z,12.70
2023-04-16T20:25:10.507Z,13.23
2023-04-16T20:27:37.651Z,12.45
2023-04-16T20:30:06.341Z,13.13
2023-04-16T20:32:33.624Z,12.82
2023-04-16T20:35:01.918Z,13.70
2023-04-16T20:37:29.203Z,13.07
2023-04-16T20:39:56.484Z,15.63
2023-04-16T20:42:26.186Z,14.57
2023-04-16T20:44:56.371Z,13.85
2023-04-16T20:47:23.928Z,13.13
2023-04-16T20:49:52.632Z,14.63
2023-04-16T20:52:21.655Z,12.20
2023-04-16T20:54:51.949Z,14.13
2023-04-16T20:57:19.137Z,14.13
2023-04-16T20:59:46.393Z,12.73
2023-04-16T21:02:13.657Z,10.77
2023-04-16T21:04:41.196Z,12.60
2023-04-16T21:07:08.319Z,12.35
2023-04-16T21:09:35.641Z,14.43
2023-04-16T21:12:02.748Z,12.17
2023-04-16T21:14:29.809Z,14.70
2023-04-16T21:16:56.896Z,13.20
2023-04-16T21:19:23.944Z,13.93
2023-04-16T21:21:51.227Z,14.68
2023-04-16T21:24:18.285Z,12.20
2023-04-16T21:26:45.366Z,13.20
2023-04-16T21:29:13.082Z,11.38
2023-04-16T21:31:40.439Z,14.73
2023-04-16T21:34:07.528Z,14.30
2023-04-16T21:36:35.057Z,13.47
2023-04-16T21:39:02.375Z,13.90
2023-04-16T21:41:29.450Z,15.27
2023-04-16T21:43:56.610Z,13.45
2023-04-16T21:46:23.779Z,16.23
2023-04-16T21:48:50.897Z,15.33
2023-04-16T21:51:18.179Z,13.90
2023-04-16T21:53:45.228Z,14.77
2023-04-16T21:56:12.328Z,14.68
2023-04-16T21:58:39.376Z,14.07
2023-04-16T22:01:07.277Z,14.50
2023-04-16T22:03:39.929Z,15.35
2023-04-16T22:06:07.744Z,13.50
2023-04-16T22:08:34.936Z,15.65
2023-04-16T22:11:02.629Z,13.93
2023-04-16T22:13:32.480Z,15.90
2023-04-16T22:16:03.417Z,15.20
2023-04-16T22:18:33.731Z,14.73
2023-04-16T22:21:00.944Z,14.15
2023-04-16T22:23:28.051Z,16.10
2023-04-16T22:25:56.124Z,17.27
2023-04-16T22:28:24.250Z,16.25
2023-04-16T22:30:51.392Z,14.57
2023-04-16T22:33:18.613Z,14.13
2023-04-16T22:35:46.003Z,14.07
2023-04-16T22:38:13.139Z,14.30
2023-04-16T22:40:40.680Z,14.63
2023-04-16T22:43:07.731Z,14.40
2023-04-16T22:45:35.558Z,14.15
2023-04-16T22:48:03.464Z,15.18
2023-04-16T22:50:32.108Z,14.67
2023-04-16T22:52:59.175Z,14.93
2023-04-16T22:55:26.404Z,13.93
2023-04-16T22:57:53.482Z,16.75
2023-04-16T23:00:21.146Z,16.67
2023-04-16T23:02:48.938Z,17.43
2023-04-16T23:05:16.414Z,16.33
2023-04-16T23:07:43.467Z,14.30
2023-04-16T23:10:10.811Z,18.45
2023-04-16T23:12:37.849Z,11.52
2023-04-16T23:15:06.622Z,15.40
2023-04-16T23:17:34.941Z,14.10
2023-04-16T23:20:02.492Z,14.20
2023-04-16T23:22:29.675Z,13.20
2023-04-16T23:24:56.894Z,13.45
2023-04-16T23:27:23.929Z,11.67
2023-04-16T23:29:51.089Z,11.23
2023-04-16T23:32:18.807Z,10.80
2023-04-16T23:34:45.980Z,11.65
2023-04-16T23:37:13.063Z,10.00
2023-04-16T23:39:41.019Z,11.30
2023-04-16T23:42:08.116Z,12.00
2023-04-16T23:44:35.380Z,12.98
2023-04-16T23:47:02.583Z,11.18
2023-04-16T23:49:30.068Z,12.65
2023-04-16T23:51:57.333Z,10.50
2023-04-16T23:54:24.618Z,13.45
2023-04-16T23:56:51.663Z,10.35
2023-04-16T23:59:18.874Z,9.50
